sensor_id;sensor_type;location;lat;lon;timestamp;pressure;altitude;pressure_sealevel;temperature;humidity
44872;BME280;30602;51.060;17.226;2023-01-15T00:02:24;100574.17;;;7.16;65.48
44872;BME280;30602;51.060;17.226;2023-01-15T00:06:00;100568.09;;;7.21;64.82
44872;BME280;30602;51.060;17.226;2023-01-15T00:09:14;100563.48;;;7.23;64.84
44872;BME280;30602;51.060;17.226;2023-01-15T00:12:45;100558.06;;;7.25;65.30
44872;BME280;30602;51.060;17.226;2023-01-15T00:16:28;100541.57;;;7.22;65.85
44872;BME280;30602;51.060;17.226;2023-01-15T00:19:36;100525.64;;;7.13;67.23
44872;BME280;30602;51.060;17.226;2023-01-15T00:23:05;100520.07;;;7.09;66.92
44872;BME280;30602;51.060;17.226;2023-01-15T00:26:40;100506.14;;;7.10;68.03
44872;BME280;30602;51.060;17.226;2023-01-15T00:30:24;100505.86;;;7.10;68.19
44872;BME280;30602;51.060;17.226;2023-01-15T00:33:35;100496.59;;;7.04;68.27
44872;BME280;30602;51.060;17.226;2023-01-15T00:36:57;100492.22;;;7.06;67.52
44872;BME280;30602;51.060;17.226;2023-01-15T00:40:08;100490.81;;;7.19;66.04
44872;BME280;30602;51.060;17.226;2023-01-15T00:43:36;100474.06;;;7.27;65.82
44872;BME280;30602;51.060;17.226;2023-01-15T00:47:08;100482.14;;;7.52;65.93
44872;BME280;30602;51.060;17.226;2023-01-15T00:50:25;100482.59;;;7.66;66.64
44872;BME280;30602;51.060;17.226;2023-01-15T00:53:35;100484.99;;;7.68;67.52
44872;BME280;30602;51.060;17.226;2023-01-15T00:56:47;100480.43;;;7.72;68.00
44872;BME280;30602;51.060;17.226;2023-01-15T00:59:59;100468.33;;;7.76;68.59
44872;BME280;30602;51.060;17.226;2023-01-15T01:03:41;100456.79;;;7.76;68.95
44872;BME280;30602;51.060;17.226;2023-01-15T01:07:16;100457.42;;;7.77;69.26
44872;BME280;30602;51.060;17.226;2023-01-15T01:11:22;100461.48;;;7.73;69.78
44872;BME280;30602;51.060;17.226;2023-01-15T01:14:47;100443.58;;;7.75;70.30
44872;BME280;30602;51.060;17.226;2023-01-15T01:18:16;100427.47;;;7.73;70.80
44872;BME280;30602;51.060;17.226;2023-01-15T01:22:11;100441.45;;;7.74;71.22
44872;BME280;30602;51.060;17.226;2023-01-15T01:26:03;100430.19;;;7.79;71.25
44872;BME280;30602;51.060;17.226;2023-01-15T01:30:09;100419.73;;;7.77;71.57
44872;BME280;30602;51.060;17.226;2023-01-15T01:33:51;100415.54;;;7.84;71.61
44872;BME280;30602;51.060;17.226;2023-01-15T01:37:04;100422.95;;;7.86;71.65
44872;BME280;30602;51.060;17.226;2023-01-15T01:40:12;100416.89;;;7.88;71.80
44872;BME280;30602;51.060;17.226;2023-01-15T01:46:53;100400.02;;;7.93;72.27
44872;BME280;30602;51.060;17.226;2023-01-15T01:50:34;100402.86;;;7.94;72.35
44872;BME280;30602;51.060;17.226;2023-01-15T01:53:49;100393.13;;;7.96;72.57
44872;BME280;30602;51.060;17.226;2023-01-15T01:57:20;100377.40;;;7.89;72.73
44872;BME280;30602;51.060;17.226;2023-01-15T02:00:35;100386.80;;;8.01;72.85
44872;BME280;30602;51.060;17.226;2023-01-15T02:04:06;100378.30;;;8.03;72.98
44872;BME280;30602;51.060;17.226;2023-01-15T02:07:40;100372.46;;;8.06;73.52
44872;BME280;30602;51.060;17.226;2023-01-15T02:11:16;100364.95;;;8.07;73.91
44872;BME280;30602;51.060;17.226;2023-01-15T02:14:37;100367.41;;;8.08;74.44
44872;BME280;30602;51.060;17.226;2023-01-15T02:29:14;100360.40;;;8.07;75.82
44872;BME280;30602;51.060;17.226;2023-01-15T02:36:22;100350.72;;;8.07;76.28
44872;BME280;30602;51.060;17.226;2023-01-15T02:39:56;100332.07;;;8.05;76.60
44872;BME280;30602;51.060;17.226;2023-01-15T02:43:39;100329.76;;;8.03;77.22
44872;BME280;30602;51.060;17.226;2023-01-15T02:47:10;100315.48;;;8.03;77.55
44872;BME280;30602;51.060;17.226;2023-01-15T02:50:47;100325.33;;;8.04;77.64
44872;BME280;30602;51.060;17.226;2023-01-15T02:59:00;100341.48;;;8.07;78.19
44872;BME280;30602;51.060;17.226;2023-01-15T03:02:29;100327.30;;;8.05;78.66
44872;BME280;30602;51.060;17.226;2023-01-15T03:18:24;100295.97;;;8.05;79.69
44872;BME280;30602;51.060;17.226;2023-01-15T03:22:02;100280.33;;;8.01;80.07
44872;BME280;30602;51.060;17.226;2023-01-15T03:25:36;100274.35;;;7.99;80.36
44872;BME280;30602;51.060;17.226;2023-01-15T03:28:47;100282.19;;;8.02;80.57
44872;BME280;30602;51.060;17.226;2023-01-15T03:32:09;100269.88;;;8.00;80.98
44872;BME280;30602;51.060;17.226;2023-01-15T03:35:49;100251.87;;;8.03;81.04
44872;BME280;30602;51.060;17.226;2023-01-15T03:39:20;100255.15;;;8.04;81.32
44872;BME280;30602;51.060;17.226;2023-01-15T03:43:01;100257.24;;;7.99;81.29
44872;BME280;30602;51.060;17.226;2023-01-15T03:50:18;100283.03;;;8.17;81.32
44872;BME280;30602;51.060;17.226;2023-01-15T03:53:56;100285.79;;;8.23;81.71
44872;BME280;30602;51.060;17.226;2023-01-15T03:57:27;100276.26;;;8.22;82.24
44872;BME280;30602;51.060;17.226;2023-01-15T04:01:14;100279.72;;;8.21;82.89
44872;BME280;30602;51.060;17.226;2023-01-15T04:04:38;100273.95;;;8.18;83.35
44872;BME280;30602;51.060;17.226;2023-01-15T04:12:30;100272.87;;;8.15;83.42
44872;BME280;30602;51.060;17.226;2023-01-15T04:16:03;100275.52;;;8.19;83.06
44872;BME280;30602;51.060;17.226;2023-01-15T04:19:34;100267.59;;;8.20;82.54
44872;BME280;30602;51.060;17.226;2023-01-15T04:23:33;100258.07;;;8.22;82.55
44872;BME280;30602;51.060;17.226;2023-01-15T04:30:59;100240.76;;;8.23;83.17
44872;BME280;30602;51.060;17.226;2023-01-15T04:34:28;100244.02;;;8.22;83.93
44872;BME280;30602;51.060;17.226;2023-01-15T04:38:06;100238.97;;;8.18;85.22
44872;BME280;30602;51.060;17.226;2023-01-15T04:45:28;100232.23;;;8.10;87.93
44872;BME280;30602;51.060;17.226;2023-01-15T04:49:12;100211.39;;;7.94;89.20
44872;BME280;30602;51.060;17.226;2023-01-15T04:52:55;100226.80;;;7.95;90.76
44872;BME280;30602;51.060;17.226;2023-01-15T04:56:04;100218.00;;;7.87;91.90
44872;BME280;30602;51.060;17.226;2023-01-15T04:59:46;100210.58;;;7.83;92.08
44872;BME280;30602;51.060;17.226;2023-01-15T05:03:15;100209.33;;;7.85;92.29
44872;BME280;30602;51.060;17.226;2023-01-15T05:06:36;100201.03;;;7.84;92.16
44872;BME280;30602;51.060;17.226;2023-01-15T05:10:06;100183.49;;;7.72;92.64
44872;BME280;30602;51.060;17.226;2023-01-15T05:13:34;100204.82;;;7.80;93.31
44872;BME280;30602;51.060;17.226;2023-01-15T05:16:53;100199.59;;;7.80;93.57
44872;BME280;30602;51.060;17.226;2023-01-15T05:20:45;100197.17;;;7.75;94.12
44872;BME280;30602;51.060;17.226;2023-01-15T05:24:05;100189.34;;;7.70;94.11
44872;BME280;30602;51.060;17.226;2023-01-15T05:27:20;100185.35;;;7.65;94.81
44872;BME280;30602;51.060;17.226;2023-01-15T05:31:10;100180.06;;;7.63;94.80
44872;BME280;30602;51.060;17.226;2023-01-15T05:34:42;100178.23;;;7.58;95.14
44872;BME280;30602;51.060;17.226;2023-01-15T05:38:36;100183.46;;;7.57;94.85
44872;BME280;30602;51.060;17.226;2023-01-15T05:42:16;100184.85;;;7.64;94.62
44872;BME280;30602;51.060;17.226;2023-01-15T05:45:28;100179.02;;;7.64;94.28
44872;BME280;30602;51.060;17.226;2023-01-15T05:49:02;100187.65;;;7.67;94.29
44872;BME280;30602;51.060;17.226;2023-01-15T06:00:22;100182.48;;;7.69;94.97
44872;BME280;30602;51.060;17.226;2023-01-15T06:04:04;100183.25;;;7.69;95.44
44872;BME280;30602;51.060;17.226;2023-01-15T06:07:12;100199.36;;;7.70;95.79
44872;BME280;30602;51.060;17.226;2023-01-15T06:10:21;100203.87;;;7.70;96.33
44872;BME280;30602;51.060;17.226;2023-01-15T06:14:02;100200.95;;;7.67;96.61
44872;BME280;30602;51.060;17.226;2023-01-15T06:17:31;100199.62;;;7.71;96.19
44872;BME280;30602;51.060;17.226;2023-01-15T06:21:14;100205.73;;;7.73;96.23
44872;BME280;30602;51.060;17.226;2023-01-15T06:25:04;100214.77;;;7.71;96.68
44872;BME280;30602;51.060;17.226;2023-01-15T06:29:05;100213.13;;;7.71;96.63
44872;BME280;30602;51.060;17.226;2023-01-15T06:32:35;100198.57;;;7.70;96.62
44872;BME280;30602;51.060;17.226;2023-01-15T06:36:21;100209.91;;;7.70;96.60
44872;BME280;30602;51.060;17.226;2023-01-15T06:39:32;100207.97;;;7.69;96.94
44872;BME280;30602;51.060;17.226;2023-01-15T06:43:00;100215.34;;;7.68;97.40
44872;BME280;30602;51.060;17.226;2023-01-15T06:46:46;100213.62;;;7.71;98.36
44872;BME280;30602;51.060;17.226;2023-01-15T06:50:25;100206.15;;;7.65;97.88
44872;BME280;30602;51.060;17.226;2023-01-15T06:53:37;100195.56;;;7.65;97.67
44872;BME280;30602;51.060;17.226;2023-01-15T06:57:27;100198.73;;;7.64;97.64
44872;BME280;30602;51.060;17.226;2023-01-15T07:01:42;100188.16;;;7.66;97.36
44872;BME280;30602;51.060;17.226;2023-01-15T07:05:17;100184.24;;;7.67;96.98
44872;BME280;30602;51.060;17.226;2023-01-15T07:08:49;100179.82;;;7.66;96.79
44872;BME280;30602;51.060;17.226;2023-01-15T07:12:28;100181.53;;;7.71;96.57
44872;BME280;30602;51.060;17.226;2023-01-15T07:15:37;100173.87;;;7.70;95.85
44872;BME280;30602;51.060;17.226;2023-01-15T07:19:06;100171.30;;;7.69;95.68
44872;BME280;30602;51.060;17.226;2023-01-15T07:22:36;100167.99;;;7.69;95.34
44872;BME280;30602;51.060;17.226;2023-01-15T07:25:48;100171.22;;;7.68;95.60
44872;BME280;30602;51.060;17.226;2023-01-15T07:29:11;100171.88;;;7.67;96.02
44872;BME280;30602;51.060;17.226;2023-01-15T07:32:26;100170.03;;;7.69;95.81
44872;BME280;30602;51.060;17.226;2023-01-15T07:35:36;100168.93;;;7.68;95.33
44872;BME280;30602;51.060;17.226;2023-01-15T07:39:19;100173.45;;;7.70;94.58
44872;BME280;30602;51.060;17.226;2023-01-15T07:42:38;100179.50;;;7.77;92.68
44872;BME280;30602;51.060;17.226;2023-01-15T07:46:17;100173.23;;;7.86;91.22
44872;BME280;30602;51.060;17.226;2023-01-15T07:49:36;100150.84;;;7.92;90.14
44872;BME280;30602;51.060;17.226;2023-01-15T07:53:06;100150.06;;;7.94;89.17
44872;BME280;30602;51.060;17.226;2023-01-15T07:56:37;100145.66;;;8.01;88.04
44872;BME280;30602;51.060;17.226;2023-01-15T08:00:13;100142.34;;;8.07;87.52
44872;BME280;30602;51.060;17.226;2023-01-15T08:03:22;100142.73;;;8.09;86.31
44872;BME280;30602;51.060;17.226;2023-01-15T08:07:04;100137.99;;;8.14;85.44
44872;BME280;30602;51.060;17.226;2023-01-15T08:11:01;100128.54;;;8.19;84.72
44872;BME280;30602;51.060;17.226;2023-01-15T08:14:40;100122.70;;;8.23;83.84
44872;BME280;30602;51.060;17.226;2023-01-15T08:18:22;100119.88;;;8.25;83.43
44872;BME280;30602;51.060;17.226;2023-01-15T08:22:05;100123.20;;;8.25;82.82
44872;BME280;30602;51.060;17.226;2023-01-15T08:25:41;100127.95;;;8.27;82.74
44872;BME280;30602;51.060;17.226;2023-01-15T08:29:09;100138.84;;;8.26;81.54
44872;BME280;30602;51.060;17.226;2023-01-15T08:32:32;100135.76;;;8.19;81.88
44872;BME280;30602;51.060;17.226;2023-01-15T08:36:04;100139.24;;;8.14;82.57
44872;BME280;30602;51.060;17.226;2023-01-15T08:39:12;100142.11;;;8.03;82.27
44872;BME280;30602;51.060;17.226;2023-01-15T08:42:33;100141.82;;;7.85;82.71
44872;BME280;30602;51.060;17.226;2023-01-15T08:45:41;100133.46;;;7.74;82.92
44872;BME280;30602;51.060;17.226;2023-01-15T08:48:53;100133.11;;;7.76;83.11
44872;BME280;30602;51.060;17.226;2023-01-15T08:52:03;100138.05;;;7.74;82.97
44872;BME280;30602;51.060;17.226;2023-01-15T08:55:37;100141.84;;;7.71;82.69
44872;BME280;30602;51.060;17.226;2023-01-15T08:59:30;100140.09;;;7.67;82.74
44872;BME280;30602;51.060;17.226;2023-01-15T09:02:41;100121.92;;;7.68;82.82
44872;BME280;30602;51.060;17.226;2023-01-15T09:10:09;100129.12;;;7.69;83.08
44872;BME280;30602;51.060;17.226;2023-01-15T09:13:38;100117.02;;;7.70;82.84
44872;BME280;30602;51.060;17.226;2023-01-15T09:17:28;100120.49;;;7.75;83.15
44872;BME280;30602;51.060;17.226;2023-01-15T09:21:03;100128.90;;;7.79;83.16
44872;BME280;30602;51.060;17.226;2023-01-15T09:25:09;100125.99;;;7.74;82.95
44872;BME280;30602;51.060;17.226;2023-01-15T09:28:58;100114.36;;;7.69;81.57
44872;BME280;30602;51.060;17.226;2023-01-15T09:32:18;100123.78;;;7.71;81.63
44872;BME280;30602;51.060;17.226;2023-01-15T09:35:30;100132.13;;;7.67;81.54
44872;BME280;30602;51.060;17.226;2023-01-15T09:39:00;100134.84;;;7.58;80.73
44872;BME280;30602;51.060;17.226;2023-01-15T09:42:37;100133.56;;;7.56;80.48
44872;BME280;30602;51.060;17.226;2023-01-15T09:57:01;100130.77;;;7.45;79.81
44872;BME280;30602;51.060;17.226;2023-01-15T10:00:48;100132.41;;;7.37;80.45
44872;BME280;30602;51.060;17.226;2023-01-15T10:11:50;100120.60;;;7.44;80.67
44872;BME280;30602;51.060;17.226;2023-01-15T10:18:56;100111.63;;;7.43;82.01
44872;BME280;30602;51.060;17.226;2023-01-15T10:25:51;100107.09;;;7.42;82.51
44872;BME280;30602;51.060;17.226;2023-01-15T10:32:55;100086.89;;;7.50;81.70
44872;BME280;30602;51.060;17.226;2023-01-15T10:36:28;100079.24;;;7.44;81.78
44872;BME280;30602;51.060;17.226;2023-01-15T10:47:35;100072.27;;;7.54;81.68
44872;BME280;30602;51.060;17.226;2023-01-15T10:50:49;100051.51;;;7.45;81.52
44872;BME280;30602;51.060;17.226;2023-01-15T10:57:35;100047.56;;;7.53;81.95
44872;BME280;30602;51.060;17.226;2023-01-15T11:00:52;100044.29;;;7.52;81.52
44872;BME280;30602;51.060;17.226;2023-01-15T11:04:30;100030.40;;;7.61;80.84
44872;BME280;30602;51.060;17.226;2023-01-15T11:08:09;100035.41;;;7.77;79.97
44872;BME280;30602;51.060;17.226;2023-01-15T11:16:24;100024.39;;;7.86;79.96
44872;BME280;30602;51.060;17.226;2023-01-15T11:19:52;100032.12;;;7.90;79.24
44872;BME280;30602;51.060;17.226;2023-01-15T11:23:18;100037.40;;;7.96;79.19
44872;BME280;30602;51.060;17.226;2023-01-15T11:26:59;100035.30;;;7.97;79.51
44872;BME280;30602;51.060;17.226;2023-01-15T11:30:55;100038.09;;;8.00;79.25
44872;BME280;30602;51.060;17.226;2023-01-15T11:34:18;100025.73;;;7.84;80.04
44872;BME280;30602;51.060;17.226;2023-01-15T11:37:37;100036.90;;;8.01;80.01
44872;BME280;30602;51.060;17.226;2023-01-15T11:44:55;100048.91;;;8.13;79.30
44872;BME280;30602;51.060;17.226;2023-01-15T11:52:15;100052.93;;;8.27;78.93
44872;BME280;30602;51.060;17.226;2023-01-15T11:55:27;100053.62;;;8.22;78.58
44872;BME280;30602;51.060;17.226;2023-01-15T11:59:00;100057.94;;;8.12;79.33
44872;BME280;30602;51.060;17.226;2023-01-15T12:02:26;100065.10;;;8.12;79.31
44872;BME280;30602;51.060;17.226;2023-01-15T12:06:08;100069.26;;;8.13;79.61
44872;BME280;30602;51.060;17.226;2023-01-15T12:28:04;100083.68;;;8.17;79.27
44872;BME280;30602;51.060;17.226;2023-01-15T12:31:29;100081.76;;;8.24;77.80
44872;BME280;30602;51.060;17.226;2023-01-15T12:42:17;100104.83;;;8.27;77.76
44872;BME280;30602;51.060;17.226;2023-01-15T12:45:48;100079.23;;;8.11;77.48
44872;BME280;30602;51.060;17.226;2023-01-15T12:53:54;100118.60;;;8.28;77.24
44872;BME280;30602;51.060;17.226;2023-01-15T12:57:12;100134.42;;;8.25;77.45
44872;BME280;30602;51.060;17.226;2023-01-15T13:01:10;100141.65;;;8.22;77.29
44872;BME280;30602;51.060;17.226;2023-01-15T13:08:17;100156.41;;;8.17;77.81
44872;BME280;30602;51.060;17.226;2023-01-15T13:12:02;100181.45;;;8.06;79.21
44872;BME280;30602;51.060;17.226;2023-01-15T13:15:38;100200.79;;;7.65;80.32
44872;BME280;30602;51.060;17.226;2023-01-15T13:33:59;100232.11;;;6.40;88.40
44872;BME280;30602;51.060;17.226;2023-01-15T13:37:22;100260.39;;;6.41;89.42
44872;BME280;30602;51.060;17.226;2023-01-15T13:41:24;100252.61;;;6.29;91.10
44872;BME280;30602;51.060;17.226;2023-01-15T13:49:56;100262.75;;;6.21;92.68
44872;BME280;30602;51.060;17.226;2023-01-15T13:53:49;100252.52;;;6.25;92.74
44872;BME280;30602;51.060;17.226;2023-01-15T14:00:35;100281.71;;;6.08;92.67
44872;BME280;30602;51.060;17.226;2023-01-15T14:04:56;100286.20;;;5.92;93.34
44872;BME280;30602;51.060;17.226;2023-01-15T14:08:46;100299.03;;;5.96;93.27
44872;BME280;30602;51.060;17.226;2023-01-15T14:38:25;100332.77;;;5.76;94.87
44872;BME280;30602;51.060;17.226;2023-01-15T14:41:37;100362.87;;;5.65;95.91
44872;BME280;30602;51.060;17.226;2023-01-15T14:48:58;100379.08;;;5.74;96.67
44872;BME280;30602;51.060;17.226;2023-01-15T14:52:23;100372.29;;;5.70;96.79
44872;BME280;30602;51.060;17.226;2023-01-15T14:55:31;100355.13;;;5.58;96.43
44872;BME280;30602;51.060;17.226;2023-01-15T14:59:27;100345.35;;;5.55;96.77
44872;BME280;30602;51.060;17.226;2023-01-15T15:03:02;100346.49;;;5.57;97.07
44872;BME280;30602;51.060;17.226;2023-01-15T15:06:45;100346.02;;;5.60;97.21
44872;BME280;30602;51.060;17.226;2023-01-15T15:10:04;100344.41;;;5.62;97.56
44872;BME280;30602;51.060;17.226;2023-01-15T15:13:56;100340.70;;;5.58;97.71
44872;BME280;30602;51.060;17.226;2023-01-15T15:17:39;100346.67;;;5.67;97.80
44872;BME280;30602;51.060;17.226;2023-01-15T15:21:42;100333.35;;;5.71;97.79
44872;BME280;30602;51.060;17.226;2023-01-15T15:25:21;100336.52;;;5.67;97.79
44872;BME280;30602;51.060;17.226;2023-01-15T15:32:37;100338.92;;;5.60;98.34
44872;BME280;30602;51.060;17.226;2023-01-15T15:35:55;100337.71;;;5.57;98.77
44872;BME280;30602;51.060;17.226;2023-01-15T15:39:34;100348.68;;;5.51;99.15
44872;BME280;30602;51.060;17.226;2023-01-15T15:43:00;100356.34;;;5.51;99.03
44872;BME280;30602;51.060;17.226;2023-01-15T15:46:35;100382.62;;;5.47;99.45
44872;BME280;30602;51.060;17.226;2023-01-15T15:50:31;100400.45;;;5.48;99.49
44872;BME280;30602;51.060;17.226;2023-01-15T15:53:49;100418.01;;;5.38;99.95
44872;BME280;30602;51.060;17.226;2023-01-15T15:57:05;100422.86;;;5.39;100.00
44872;BME280;30602;51.060;17.226;2023-01-15T16:03:58;100415.55;;;5.43;100.00
44872;BME280;30602;51.060;17.226;2023-01-15T16:07:32;100420.62;;;5.42;100.00
44872;BME280;30602;51.060;17.226;2023-01-15T16:11:07;100419.93;;;5.41;100.00
44872;BME280;30602;51.060;17.226;2023-01-15T16:15:28;100416.17;;;5.43;100.00
44872;BME280;30602;51.060;17.226;2023-01-15T16:18:59;100420.12;;;5.46;100.00
44872;BME280;30602;51.060;17.226;2023-01-15T16:22:15;100414.54;;;5.41;100.00
44872;BME280;30602;51.060;17.226;2023-01-15T16:29:31;100430.59;;;5.44;100.00
44872;BME280;30602;51.060;17.226;2023-01-15T16:33:14;100434.46;;;5.41;100.00
44872;BME280;30602;51.060;17.226;2023-01-15T16:36:26;100429.55;;;5.35;100.00
44872;BME280;30602;51.060;17.226;2023-01-15T16:39:44;100434.90;;;5.31;100.00
44872;BME280;30602;51.060;17.226;2023-01-15T16:43:57;100450.30;;;5.21;100.00
44872;BME280;30602;51.060;17.226;2023-01-15T16:52:53;100443.23;;;5.38;100.00
44872;BME280;30602;51.060;17.226;2023-01-15T16:56:04;100450.17;;;5.35;100.00
44872;BME280;30602;51.060;17.226;2023-01-15T16:59:18;100471.10;;;5.30;100.00
44872;BME280;30602;51.060;17.226;2023-01-15T17:02:51;100472.68;;;5.28;100.00
44872;BME280;30602;51.060;17.226;2023-01-15T17:06:11;100467.09;;;5.20;100.00
44872;BME280;30602;51.060;17.226;2023-01-15T17:09:51;100464.60;;;5.20;100.00
44872;BME280;30602;51.060;17.226;2023-01-15T17:13:33;100458.91;;;5.21;100.00
44872;BME280;30602;51.060;17.226;2023-01-15T17:17:15;100470.15;;;5.20;100.00
44872;BME280;30602;51.060;17.226;2023-01-15T17:24:22;100470.23;;;5.20;100.00
44872;BME280;30602;51.060;17.226;2023-01-15T17:28:36;100473.27;;;5.11;100.00
44872;BME280;30602;51.060;17.226;2023-01-15T17:32:33;100482.95;;;5.22;100.00
44872;BME280;30602;51.060;17.226;2023-01-15T17:36:14;100499.01;;;5.37;100.00
44872;BME280;30602;51.060;17.226;2023-01-15T17:39:43;100499.46;;;5.36;100.00
44872;BME280;30602;51.060;17.226;2023-01-15T17:43:34;100499.19;;;5.28;100.00
44872;BME280;30602;51.060;17.226;2023-01-15T17:47:36;100508.65;;;5.20;100.00
44872;BME280;30602;51.060;17.226;2023-01-15T17:51:12;100512.99;;;5.11;100.00
44872;BME280;30602;51.060;17.226;2023-01-15T17:54:55;100519.04;;;5.17;100.00
44872;BME280;30602;51.060;17.226;2023-01-15T18:02:26;100515.84;;;5.10;100.00
44872;BME280;30602;51.060;17.226;2023-01-15T18:06:10;100526.53;;;5.04;100.00
44872;BME280;30602;51.060;17.226;2023-01-15T18:10:33;100533.80;;;5.11;100.00
44872;BME280;30602;51.060;17.226;2023-01-15T18:13:41;100536.75;;;5.12;100.00
44872;BME280;30602;51.060;17.226;2023-01-15T18:17:13;100533.78;;;5.10;100.00
44872;BME280;30602;51.060;17.226;2023-01-15T18:20:21;100530.98;;;5.07;100.00
44872;BME280;30602;51.060;17.226;2023-01-15T18:24:16;100535.68;;;5.10;100.00
44872;BME280;30602;51.060;17.226;2023-01-15T18:28:32;100540.21;;;5.08;100.00
44872;BME280;30602;51.060;17.226;2023-01-15T18:31:45;100540.89;;;5.01;100.00
44872;BME280;30602;51.060;17.226;2023-01-15T18:34:54;100545.25;;;4.93;100.00
44872;BME280;30602;51.060;17.226;2023-01-15T18:38:23;100554.25;;;4.88;100.00
44872;BME280;30602;51.060;17.226;2023-01-15T18:41:35;100555.77;;;4.83;100.00
44872;BME280;30602;51.060;17.226;2023-01-15T18:45:16;100550.20;;;4.78;100.00
44872;BME280;30602;51.060;17.226;2023-01-15T18:48:55;100550.92;;;4.80;100.00
44872;BME280;30602;51.060;17.226;2023-01-15T18:52:10;100550.26;;;4.76;100.00
44872;BME280;30602;51.060;17.226;2023-01-15T18:55:53;100539.92;;;4.60;100.00
44872;BME280;30602;51.060;17.226;2023-01-15T19:04:00;100556.58;;;4.67;100.00
44872;BME280;30602;51.060;17.226;2023-01-15T19:07:58;100562.02;;;4.75;100.00
44872;BME280;30602;51.060;17.226;2023-01-15T19:11:12;100570.62;;;4.82;99.74
44872;BME280;30602;51.060;17.226;2023-01-15T19:14:24;100568.60;;;4.82;98.93
44872;BME280;30602;51.060;17.226;2023-01-15T19:18:10;100577.37;;;4.84;97.79
44872;BME280;30602;51.060;17.226;2023-01-15T19:21:27;100582.41;;;4.85;97.28
44872;BME280;30602;51.060;17.226;2023-01-15T19:25:38;100580.81;;;4.87;96.61
44872;BME280;30602;51.060;17.226;2023-01-15T19:32:55;100580.15;;;4.90;95.62
44872;BME280;30602;51.060;17.226;2023-01-15T19:36:30;100570.81;;;4.88;95.70
44872;BME280;30602;51.060;17.226;2023-01-15T19:40:00;100580.63;;;4.89;95.26
44872;BME280;30602;51.060;17.226;2023-01-15T19:43:19;100582.17;;;4.85;95.41
44872;BME280;30602;51.060;17.226;2023-01-15T19:49:34;100598.78;;;4.77;95.25
44872;BME280;30602;51.060;17.226;2023-01-15T19:53:14;100600.69;;;4.88;94.01
44872;BME280;30602;51.060;17.226;2023-01-15T20:02:51;100612.97;;;4.81;94.00
44872;BME280;30602;51.060;17.226;2023-01-15T20:06:23;100630.10;;;4.70;93.90
44872;BME280;30602;51.060;17.226;2023-01-15T20:09:56;100634.33;;;4.75;92.99
44872;BME280;30602;51.060;17.226;2023-01-15T20:13:19;100633.18;;;4.68;94.24
44872;BME280;30602;51.060;17.226;2023-01-15T20:17:06;100630.26;;;4.62;95.16
44872;BME280;30602;51.060;17.226;2023-01-15T20:20:45;100633.43;;;4.58;95.58
44872;BME280;30602;51.060;17.226;2023-01-15T20:32:03;100639.60;;;4.15;95.80
44872;BME280;30602;51.060;17.226;2023-01-15T20:35:26;100635.83;;;4.10;95.47
44872;BME280;30602;51.060;17.226;2023-01-15T20:39:00;100637.08;;;4.34;95.10
44872;BME280;30602;51.060;17.226;2023-01-15T20:42:12;100623.39;;;4.39;94.95
44872;BME280;30602;51.060;17.226;2023-01-15T20:46:11;100627.40;;;4.45;94.77
44872;BME280;30602;51.060;17.226;2023-01-15T20:49:57;100634.86;;;4.50;93.62
44872;BME280;30602;51.060;17.226;2023-01-15T20:53:09;100630.63;;;4.47;93.62
44872;BME280;30602;51.060;17.226;2023-01-15T20:56:33;100631.20;;;4.46;93.52
44872;BME280;30602;51.060;17.226;2023-01-15T21:00:13;100631.45;;;4.45;93.55
44872;BME280;30602;51.060;17.226;2023-01-15T21:03:52;100633.95;;;4.39;93.32
44872;BME280;30602;51.060;17.226;2023-01-15T21:07:04;100627.78;;;4.39;92.74
44872;BME280;30602;51.060;17.226;2023-01-15T21:10:27;100608.81;;;4.41;91.36
44872;BME280;30602;51.060;17.226;2023-01-15T21:14:29;100613.41;;;4.45;90.51
44872;BME280;30602;51.060;17.226;2023-01-15T21:17:46;100601.73;;;4.44;89.47
44872;BME280;30602;51.060;17.226;2023-01-15T21:21:48;100605.70;;;4.46;89.66
44872;BME280;30602;51.060;17.226;2023-01-15T21:25:22;100611.13;;;4.48;89.57
44872;BME280;30602;51.060;17.226;2023-01-15T21:28:43;100611.97;;;4.52;89.54
44872;BME280;30602;51.060;17.226;2023-01-15T21:32:15;100611.29;;;4.50;88.96
44872;BME280;30602;51.060;17.226;2023-01-15T21:35:43;100613.47;;;4.44;88.21
44872;BME280;30602;51.060;17.226;2023-01-15T21:39:15;100611.27;;;4.40;87.71
44872;BME280;30602;51.060;17.226;2023-01-15T21:43:09;100618.33;;;4.35;87.21
44872;BME280;30602;51.060;17.226;2023-01-15T21:46:49;100614.46;;;4.26;86.86
44872;BME280;30602;51.060;17.226;2023-01-15T21:50:20;100613.24;;;4.16;86.79
44872;BME280;30602;51.060;17.226;2023-01-15T21:57:48;100613.10;;;4.06;84.97
44872;BME280;30602;51.060;17.226;2023-01-15T22:02:08;100606.75;;;4.04;85.45
44872;BME280;30602;51.060;17.226;2023-01-15T22:05:46;100616.73;;;3.95;84.94
44872;BME280;30602;51.060;17.226;2023-01-15T22:09:25;100611.21;;;3.92;84.88
44872;BME280;30602;51.060;17.226;2023-01-15T22:13:08;100616.13;;;3.93;84.26
44872;BME280;30602;51.060;17.226;2023-01-15T22:16:18;100608.67;;;3.96;83.63
44872;BME280;30602;51.060;17.226;2023-01-15T22:20:19;100606.67;;;3.87;83.09
44872;BME280;30602;51.060;17.226;2023-01-15T22:23:51;100603.34;;;3.82;82.97
44872;BME280;30602;51.060;17.226;2023-01-15T22:27:18;100594.05;;;3.77;82.91
44872;BME280;30602;51.060;17.226;2023-01-15T22:30:50;100593.98;;;3.63;82.91
44872;BME280;30602;51.060;17.226;2023-01-15T22:34:18;100583.38;;;3.58;81.98
44872;BME280;30602;51.060;17.226;2023-01-15T22:37:27;100579.40;;;3.58;81.73
44872;BME280;30602;51.060;17.226;2023-01-15T22:40:59;100581.93;;;3.57;81.05
44872;BME280;30602;51.060;17.226;2023-01-15T22:44:23;100571.56;;;3.53;81.17